Terminal Aerodrome Forecast
Issued by NWS Pueblo, CO

Home | Current Version | Previous Version | Text Only | Print | Product List | Glossary On
Versions: 1 2 3 4 5 6 7 8 9 10 11 12 13 14 15 16 17 18 19 20 21 22 23 24 25 26 27 28 29 30 31 32 33 34 35 36 37 38 39 40 41 42 43
000
FTUS45 KPUB 262320
TAFCOS
TAF
KCOS 262320Z 2700/2724 16006KT P6SM FEW140 BKN250
     FM270300 01006KT P6SM FEW200
     FM271600 08010KT P6SM FEW200
     FM272000 32012KT P6SM FEW060 SCT200=

USA.gov is the U.S. government's official web portal to all federal, state and local government web resources and services.